Baldwin, Florida
Current Conditions -  °F | °C
As of 9:55 PM on Tuesday 25 Nov 2014 (Local Time) from KVQQ Reporting Station
Overcast Overcast  
Wind Chill: 63°   Ceiling: 400
Heat Index: 63°   Visibility: 10mi
Dew Point: 63°   Wind: 3mph
Humidity: 100%   Direction: 350°N
Pressure: 29.9"   Gusts: NA
Location:  30.2098°N, 81.9726°W
Report Text: KVQQ 260255Z AUTO 35003KT 10SM OVC004 17/17 A2990 RMK AO2 P0001
Loading
Personal Weather Stations






























Interactive Weather Map New forecast layout! Learn more

10-Day Weather Forecast

Advertisements
Track Severe Weather on mobile